Time;durP1;ratioP1;P1;durP2;ratioP2;P2;SDS_P1;SDS_P2;PMS_P1;PMS_P2;Temp;Humidity;BMP_temperature;BMP_pressure;BME280_temperature;BME280_humidity;BME280_pressure;Samples;Min_cycle;Max_cycle;Signal;HPM_P1;HPM_P2
2022/02/04 00:22:19;;;;;;;23.58;12.65;;;6.70;99.90;;;;;;5004331;28;20042;-65
2022/02/04 00:24:33;;;;;;;25.33;14.50;;;6.70;99.90;;;;;;4992584;28;20076;-64
2022/02/04 00:27:06;;;;;;;21.77;14.23;;;6.70;99.90;;;;;;4995862;28;20086;-64
2022/02/04 00:29:42;;;;;;;30.08;15.73;;;6.70;99.90;;;;;;5004605;28;20054;-64
2022/02/04 00:32:10;;;;;;;27.95;16.08;;;6.80;99.90;;;;;;5004797;28;20054;-64
2022/02/04 00:34:46;;;;;;;29.73;17.73;;;6.80;99.90;;;;;;5003276;28;20049;-64
2022/02/04 00:39:55;;;;;;;30.77;17.70;;;6.80;99.90;;;;;;5002661;28;20468;-64
2022/02/04 00:42:20;;;;;;;27.25;16.42;;;6.80;99.90;;;;;;5005809;28;20121;-64
2022/02/04 00:44:48;;;;;;;29.55;16.10;;;6.80;99.90;;;;;;5007757;28;20121;-64
2022/02/04 00:47:19;;;;;;;25.08;16.00;;;6.80;99.90;;;;;;4995798;28;20045;-64
2022/02/04 01:06:29;;;;;;;24.63;15.77;;;6.70;99.90;;;;;;5003467;28;20053;-64
2022/02/04 01:28:00;;;;;;;35.88;20.38;;;6.20;99.90;;;;;;5011691;28;20057;-64
2022/02/04 01:30:31;;;;;;;31.25;19.50;;;6.20;99.90;;;;;;5010140;28;20058;-64
2022/02/04 01:32:57;;;;;;;36.00;19.35;;;6.10;99.90;;;;;;5007883;28;20049;-64
2022/02/04 01:35:23;;;;;;;30.35;18.40;;;6.10;99.90;;;;;;5003529;28;20643;-64
2022/02/04 01:37:48;;;;;;;29.25;18.55;;;6.10;99.90;;;;;;5011772;28;20042;-64
2022/02/04 01:40:14;;;;;;;33.83;20.17;;;6.10;99.90;;;;;;5006966;28;20764;-64
2022/02/04 01:42:40;;;;;;;32.53;20.33;;;6.10;99.90;;;;;;5008626;28;20046;-64
2022/02/04 01:45:06;;;;;;;27.58;17.02;;;6.10;99.90;;;;;;5003329;28;20415;-64
2022/02/04 01:47:32;;;;;;;29.25;18.85;;;6.10;99.90;;;;;;5007648;28;20468;-64
2022/02/04 01:49:58;;;;;;;30.02;18.05;;;6.10;99.90;;;;;;5007061;28;20181;-64
2022/02/04 01:52:24;;;;;;;29.08;17.08;;;6.10;99.90;;;;;;4994870;28;20041;-64
2022/02/04 01:54:50;;;;;;;31.98;20.10;;;6.20;99.90;;;;;;5007322;28;20088;-64
2022/02/04 01:57:15;;;;;;;27.17;16.13;;;6.20;99.90;;;;;;5006588;28;20049;-64
2022/02/04 01:59:41;;;;;;;29.52;17.98;;;6.20;99.90;;;;;;5006291;28;20046;-64
2022/02/04 02:02:08;;;;;;;35.13;18.92;;;6.30;99.90;;;;;;5006308;28;20112;-65
2022/02/04 02:04:34;;;;;;;26.60;15.15;;;6.30;99.90;;;;;;5022973;28;20046;-64
2022/02/04 02:07:03;;;;;;;30.40;18.77;;;6.30;99.90;;;;;;5006595;28;20050;-65
2022/02/04 02:09:45;;;;;;;30.90;17.30;;;6.30;99.90;;;;;;5007311;28;20104;-64
2022/02/04 02:12:12;;;;;;;33.25;18.23;;;6.30;99.90;;;;;;5007502;28;20054;-64
2022/02/04 02:14:39;;;;;;;33.60;19.00;;;6.30;99.90;;;;;;5019506;28;20077;-64
2022/02/04 02:33:11;;;;;;;30.73;17.92;;;6.30;99.90;;;;;;5007558;28;20488;-64
2022/02/04 02:36:28;;;;;;;27.40;17.15;;;6.20;99.90;;;;;;5010497;28;20046;-64
2022/02/04 02:52:23;;;;;;;20.55;11.10;;;6.50;99.90;;;;;;4994612;28;20045;-64
2022/02/04 02:57:46;;;;;;;30.17;17.08;;;6.50;99.90;;;;;;5006190;28;20056;-64
2022/02/04 03:03:00;;;;;;;30.08;17.33;;;6.60;99.90;;;;;;5018152;28;20046;-64
2022/02/04 03:05:26;;;;;;;31.67;18.10;;;6.60;99.90;;;;;;5005497;28;20091;-64
2022/02/04 03:07:52;;;;;;;29.17;15.30;;;6.60;99.90;;;;;;5020688;28;20089;-64
2022/02/04 03:10:17;;;;;;;25.17;14.88;;;6.70;99.90;;;;;;4998895;28;20053;-64
2022/02/04 03:12:44;;;;;;;30.88;18.05;;;6.70;99.90;;;;;;5004531;28;20050;-64
2022/02/04 03:15:11;;;;;;;29.50;15.98;;;6.70;99.90;;;;;;5005862;28;20522;-64
2022/02/04 03:17:39;;;;;;;31.58;17.27;;;6.70;99.90;;;;;;5021342;28;20061;-64
2022/02/04 03:20:09;;;;;;;26.90;15.20;;;6.60;99.90;;;;;;5005375;28;20156;-64
2022/02/04 03:22:36;;;;;;;;;;;6.70;99.90;;;;;;5021610;28;20404;-64
2022/02/04 03:25:06;;;;;;;20.30;11.70;;;6.70;99.90;;;;;;5003674;28;19932;-65
2022/02/04 03:27:47;;;;;;;27.25;14.90;;;6.70;99.90;;;;;;5005343;28;20042;-65
2022/02/04 03:30:22;;;;;;;31.30;16.92;;;6.70;99.90;;;;;;5006453;28;20073;-64
2022/02/04 03:32:53;;;;;;;24.27;15.43;;;6.70;99.90;;;;;;4995667;28;20512;-64
2022/02/04 03:35:23;;;;;;;30.85;16.20;;;6.70;99.90;;;;;;5005274;28;20053;-64
2022/02/04 03:37:51;;;;;;;26.27;16.08;;;6.70;99.90;;;;;;5004982;28;20072;-64
2022/02/04 03:40:17;;;;;;;29.05;16.23;;;6.70;99.90;;;;;;5002782;28;20051;-64
2022/02/04 03:42:45;;;;;;;23.17;13.23;;;6.70;99.90;;;;;;5005321;28;20053;-64
2022/02/04 03:45:10;;;;;;;23.42;13.65;;;6.70;99.90;;;;;;5005452;28;20070;-64
2022/02/04 03:47:36;;;;;;;31.42;15.30;;;6.70;99.90;;;;;;5005811;28;20499;-64
2022/02/04 03:50:02;;;;;;;21.83;13.20;;;6.70;99.90;;;;;;5004854;28;20100;-64
2022/02/04 03:52:28;;;;;;;26.13;15.18;;;6.80;99.90;;;;;;5005941;28;20054;-64
2022/02/04 03:54:54;;;;;;;26.73;15.25;;;6.80;99.90;;;;;;5004008;28;20473;-64
2022/02/04 03:57:19;;;;;;;27.42;15.88;;;6.90;99.90;;;;;;5005913;28;20049;-64
2022/02/04 03:59:45;;;;;;;26.55;14.20;;;6.90;99.90;;;;;;5019802;28;20534;-64
2022/02/04 04:02:13;;;;;;;28.30;17.30;;;6.90;99.90;;;;;;5002732;28;20050;-64
2022/02/04 04:04:39;;;;;;;27.27;15.65;;;6.90;99.90;;;;;;5020848;28;20133;-64
2022/02/04 04:07:05;;;;;;;32.38;16.83;;;6.90;99.90;;;;;;5004110;28;20129;-64
2022/02/04 04:09:32;;;;;;;22.13;11.73;;;7.00;99.90;;;;;;5004560;28;20591;-64
2022/02/04 04:11:58;;;;;;;32.38;18.42;;;6.90;99.90;;;;;;5001229;28;20572;-64
2022/02/04 04:14:24;;;;;;;25.08;13.75;;;7.00;99.90;;;;;;5004005;28;20037;-64
2022/02/04 04:16:50;;;;;;;32.85;17.40;;;7.00;99.90;;;;;;5007429;28;20046;-64
2022/02/04 04:19:16;;;;;;;21.98;13.00;;;7.00;99.90;;;;;;5024390;28;20054;-64
2022/02/04 04:21:41;;;;;;;25.33;13.50;;;7.00;99.90;;;;;;5009233;28;20505;-64
2022/02/04 04:24:07;;;;;;;23.30;12.05;;;7.00;99.90;;;;;;5008474;28;20049;-64
2022/02/04 04:26:33;;;;;;;29.73;16.23;;;7.00;99.90;;;;;;5001232;28;20132;-64
2022/02/04 04:28:59;;;;;;;31.40;17.63;;;7.00;99.90;;;;;;5022445;28;20064;-64
2022/02/04 04:31:24;;;;;;;26.90;16.83;;;7.00;99.90;;;;;;5023496;28;20046;-64
2022/02/04 04:33:52;;;;;;;27.67;16.92;;;7.00;99.90;;;;;;5006368;28;20034;-64
2022/02/04 04:36:20;;;;;;;25.83;14.45;;;7.00;99.90;;;;;;5008562;28;20046;-64
2022/02/04 04:38:57;;;;;;;25.38;14.77;;;7.00;99.90;;;;;;5008350;28;20064;-64
2022/02/04 05:30:10;;;;;;;26.02;13.30;;;7.40;99.90;;;;;;5007236;28;20399;-64
2022/02/04 05:32:36;;;;;;;18.23;8.55;;;7.40;99.90;;;;;;5006502;28;20054;-64
2022/02/04 05:35:06;;;;;;;16.98;11.15;;;7.30;99.90;;;;;;5007512;28;20040;-64
2022/02/04 05:37:34;;;;;;;22.42;12.57;;;7.30;99.90;;;;;;5022908;28;20049;-64
2022/02/04 05:40:05;;;;;;;24.00;14.02;;;7.30;99.90;;;;;;5007551;28;20049;-64
2022/02/04 05:42:34;;;;;;;22.88;14.00;;;7.40;99.90;;;;;;5003975;28;20046;-64
2022/02/04 05:45:05;;;;;;;23.15;12.57;;;7.40;99.90;;;;;;5007249;28;20124;-65
2022/02/04 05:47:32;;;;;;;24.33;13.70;;;7.40;99.90;;;;;;5006953;28;20579;-64
2022/02/04 05:50:18;;;;;;;31.50;14.35;;;7.30;99.90;;;;;;5006921;28;20087;-64
2022/02/04 05:53:15;;;;;;;24.67;13.27;;;7.30;99.90;;;;;;5007876;28;20057;-64
2022/02/04 05:55:58;;;;;;;21.20;12.68;;;7.40;99.90;;;;;;5003601;28;20095;-64
2022/02/04 06:01:17;;;;;;;19.27;11.32;;;7.40;99.90;;;;;;5006818;28;20065;-64
2022/02/04 06:09:23;;;;;;;20.92;11.38;;;7.40;99.90;;;;;;5006721;28;20046;-64
2022/02/04 06:22:36;;;;;;;20.08;10.35;;;7.40;99.90;;;;;;5006480;28;20104;-64
2022/02/04 06:25:02;;;;;;;17.13;8.88;;;7.40;99.90;;;;;;5005185;28;20046;-64
2022/02/04 06:27:28;;;;;;;20.73;9.13;;;7.40;99.90;;;;;;5001533;28;20451;-64
2022/02/04 06:29:56;;;;;;;21.75;11.48;;;7.40;99.90;;;;;;4992868;28;20098;-64
2022/02/04 06:32:22;;;;;;;9.38;6.43;;;7.40;99.90;;;;;;5021662;28;20056;-64
2022/02/04 06:34:49;;;;;;;19.33;10.82;;;7.40;99.90;;;;;;5004480;28;20539;-64
2022/02/04 06:37:17;;;;;;;13.43;6.97;;;7.40;99.90;;;;;;5006098;28;20165;-64
2022/02/04 06:39:43;;;;;;;18.33;10.68;;;7.40;99.90;;;;;;5005448;28;20046;-64
2022/02/04 06:42:09;;;;;;;18.80;11.00;;;7.40;99.90;;;;;;5004266;28;20060;-65
2022/02/04 06:44:36;;;;;;;19.23;10.90;;;7.40;99.90;;;;;;5004732;28;20050;-64
2022/02/04 06:47:03;;;;;;;22.25;10.85;;;7.40;99.90;;;;;;5004871;28;20042;-64
2022/02/04 06:49:28;;;;;;;17.13;8.13;;;7.40;99.90;;;;;;5006982;28;20147;-64
2022/02/04 06:51:54;;;;;;;17.25;9.32;;;7.40;99.90;;;;;;5003826;28;20125;-64
2022/02/04 06:54:20;;;;;;;18.13;9.55;;;7.40;99.90;;;;;;5005170;28;20125;-64
2022/02/04 06:56:46;;;;;;;18.05;9.45;;;7.40;99.90;;;;;;5005615;28;20034;-64
2022/02/04 06:59:12;;;;;;;12.20;6.80;;;7.40;99.90;;;;;;5005672;28;20038;-64
2022/02/04 07:01:37;;;;;;;18.05;8.15;;;7.40;99.90;;;;;;5004746;28;20037;-64
2022/02/04 07:04:06;;;;;;;9.98;6.20;;;7.40;99.90;;;;;;5005713;28;20090;-64
2022/02/04 07:06:35;;;;;;;18.13;8.68;;;7.40;99.90;;;;;;5006330;28;20046;-64
2022/02/04 07:12:05;;;;;;;7.47;4.50;;;7.40;99.90;;;;;;5006381;28;20424;-64
2022/02/04 07:19:47;;;;;;;15.98;7.20;;;7.50;99.90;;;;;;5006512;28;20046;-64
2022/02/04 07:22:17;;;;;;;17.00;8.88;;;7.50;99.90;;;;;;5000198;28;20053;-64
2022/02/04 07:24:44;;;;;;;16.08;8.88;;;7.50;99.90;;;;;;5005391;28;20026;-65
2022/02/04 07:27:10;;;;;;;15.95;7.60;;;7.50;99.90;;;;;;5005436;28;20502;-64
2022/02/04 07:29:36;;;;;;;22.55;8.45;;;7.60;99.90;;;;;;5005553;28;20038;-64
2022/02/04 07:32:09;;;;;;;12.60;8.02;;;7.60;99.90;;;;;;5005384;28;20107;-64
2022/02/04 07:42:30;;;;;;;17.73;7.70;;;7.60;99.90;;;;;;5005724;28;20050;-64
2022/02/04 07:44:55;;;;;;;17.23;8.23;;;7.70;99.90;;;;;;5005638;28;20030;-64
2022/02/04 07:47:21;;;;;;;13.57;7.40;;;7.70;99.90;;;;;;5019954;28;20060;-65
2022/02/04 07:49:47;;;;;;;15.40;8.38;;;7.60;99.90;;;;;;5005500;28;20054;-64
2022/02/04 07:52:13;;;;;;;15.95;6.55;;;7.70;99.90;;;;;;5003290;28;20046;-64
2022/02/04 07:54:38;;;;;;;11.93;6.70;;;7.70;99.90;;;;;;4999300;28;20705;-64
2022/02/04 07:57:04;;;;;;;19.45;8.82;;;7.70;99.90;;;;;;5003286;28;20480;-64
2022/02/04 07:59:30;;;;;;;16.77;8.88;;;7.70;99.90;;;;;;5020839;28;20050;-64
2022/02/04 08:01:55;;;;;;;9.15;4.10;;;7.80;99.90;;;;;;5005345;28;20037;-64
2022/02/04 08:04:26;;;;;;;10.30;6.28;;;7.80;99.90;;;;;;5004862;28;20125;-64
2022/02/04 08:06:58;;;;;;;11.65;7.00;;;7.80;99.90;;;;;;5005772;28;20057;-64
2022/02/04 08:09:46;;;;;;;13.07;5.43;;;7.80;99.90;;;;;;5002867;28;20129;-64
2022/02/04 08:23:10;;;;;;;8.90;4.35;;;7.80;99.90;;;;;;5006299;28;20053;-64
2022/02/04 08:49:55;;;;;;;4.38;3.00;;;8.10;99.90;;;;;;4985857;28;20473;-64
2022/02/04 08:55:12;;;;;;;2.65;2.45;;;8.10;99.90;;;;;;5004882;28;20049;-64
2022/02/04 08:57:42;;;;;;;4.50;3.60;;;8.20;99.90;;;;;;4999310;28;20562;-65
2022/02/04 09:02:41;;;;;;;4.88;2.97;;;8.20;99.90;;;;;;5003966;28;20099;-64
2022/02/04 09:05:15;;;;;;;9.20;3.25;;;8.20;99.90;;;;;;5006568;28;20038;-65
2022/02/04 09:07:56;;;;;;;3.63;2.95;;;8.30;99.90;;;;;;5004923;28;20400;-64
2022/02/04 09:10:24;;;;;;;4.90;3.83;;;8.30;99.90;;;;;;5006501;28;20045;-64
2022/02/04 09:23:26;;;;;;;7.85;4.30;;;8.40;99.90;;;;;;5004433;28;20038;-65
2022/02/04 09:25:52;;;;;;;6.30;4.57;;;8.40;99.90;;;;;;5022782;28;20484;-65
2022/02/04 09:28:18;;;;;;;6.50;4.22;;;8.50;99.90;;;;;;5004872;28;20038;-64
2022/02/04 09:30:44;;;;;;;7.35;3.38;;;8.60;99.90;;;;;;5005603;28;20060;-64
2022/02/04 09:33:12;;;;;;;7.57;3.47;;;8.70;99.90;;;;;;5002508;28;20226;-65
2022/02/04 09:35:39;;;;;;;4.88;3.70;;;8.70;99.90;;;;;;5021205;28;20038;-65
2022/02/04 09:38:05;;;;;;;7.28;4.45;;;8.70;99.90;;;;;;4985918;28;20125;-65
2022/02/04 09:40:32;;;;;;;4.22;3.28;;;8.70;99.90;;;;;;5020297;28;20045;-63
2022/02/04 09:42:58;;;;;;;5.78;3.08;;;8.70;99.90;;;;;;5022204;28;20049;-63
2022/02/04 09:45:26;;;;;;;11.38;4.22;;;8.70;99.90;;;;;;5004053;28;20157;-63
2022/02/04 09:48:01;;;;;;;7.47;4.20;;;8.70;99.90;;;;;;5005962;28;20094;-63
2022/02/04 09:50:30;;;;;;;7.97;3.55;;;8.70;99.90;;;;;;5018262;28;20054;-64
2022/02/04 10:13:22;;;;;;;6.28;3.20;;;8.50;99.90;;;;;;5000493;28;20050;-64
2022/02/04 10:21:05;;;;;;;8.35;3.15;;;8.60;99.90;;;;;;4983827;28;20054;-64
2022/02/04 10:23:46;;;;;;;3.05;2.58;;;8.60;99.90;;;;;;5002503;28;20054;-64
2022/02/04 10:26:12;;;;;;;5.97;3.85;;;8.60;99.90;;;;;;5006077;28;20439;-64
2022/02/04 10:28:38;;;;;;;4.28;3.35;;;8.60;99.90;;;;;;5020794;28;20054;-64
2022/02/04 10:31:20;;;;;;;2.65;2.47;;;8.60;99.90;;;;;;5003481;28;20060;-64
2022/02/04 10:34:11;;;;;;;6.00;3.35;;;8.60;99.90;;;;;;5002305;28;20053;-64
2022/02/04 10:36:58;;;;;;;2.85;2.50;;;8.60;99.90;;;;;;5018320;28;20081;-65
2022/02/04 10:39:25;;;;;;;4.40;3.00;;;8.60;99.90;;;;;;4995498;28;20519;-64
2022/02/04 10:42:15;;;;;;;4.40;3.03;;;8.60;99.90;;;;;;5004729;28;20611;-64
2022/02/04 10:44:54;;;;;;;6.35;3.40;;;8.60;99.90;;;;;;5020703;28;20093;-64
2022/02/04 10:47:33;;;;;;;2.50;2.30;;;8.70;99.90;;;;;;5019995;28;20423;-64
2022/02/04 10:50:27;;;;;;;6.88;3.08;;;8.70;99.90;;;;;;5002899;28;20053;-64
2022/02/04 10:53:26;;;;;;;12.98;3.90;;;8.70;99.90;;;;;;4995795;28;20062;-65
2022/02/04 11:01:17;;;;;;;3.30;2.50;;;8.80;99.90;;;;;;5005192;28;20083;-65
2022/02/04 11:03:52;;;;;;;4.60;2.60;;;8.80;99.90;;;;;;4999103;28;20050;-64
2022/02/04 11:09:14;;;;;;;2.60;2.20;;;9.00;99.90;;;;;;5005811;28;20115;-64
2022/02/04 11:36:25;;;;;;;4.43;2.13;;;9.00;99.90;;;;;;5003216;28;20037;-64
2022/02/04 11:53:55;;;;;;;3.88;2.35;;;9.20;99.90;;;;;;4962156;28;20058;-64
2022/02/04 11:56:21;;;;;;;5.68;2.42;;;9.30;99.90;;;;;;5004120;28;20061;-64
2022/02/04 11:59:02;;;;;;;2.10;1.75;;;9.30;99.90;;;;;;4999609;28;20061;-64
2022/02/04 12:01:42;;;;;;;4.28;2.47;;;9.30;99.90;;;;;;5001470;28;20065;-64
2022/02/04 12:04:20;;;;;;;4.33;2.73;;;9.30;99.90;;;;;;5016688;28;20515;-64
2022/02/04 12:06:46;;;;;;;2.58;2.10;;;9.30;99.90;;;;;;4989676;28;20290;-64
2022/02/04 12:09:13;;;;;;;5.00;2.78;;;9.40;99.90;;;;;;5005345;28;20505;-64
2022/02/04 12:11:42;;;;;;;4.72;1.98;;;9.40;99.90;;;;;;4995344;28;20487;-64
2022/02/04 12:14:11;;;;;;;2.42;1.67;;;9.40;99.90;;;;;;5001498;28;20045;-64
2022/02/04 12:17:04;;;;;;;2.22;2.10;;;9.40;99.90;;;;;;5002687;28;20042;-63
2022/02/04 12:19:41;;;;;;;2.90;2.13;;;9.50;99.90;;;;;;5004577;28;20046;-64
2022/02/04 12:22:09;;;;;;;4.70;1.98;;;9.50;99.90;;;;;;5004465;28;20536;-64
2022/02/04 12:24:38;;;;;;;3.15;1.52;;;9.60;99.90;;;;;;5002444;28;20080;-64
2022/02/04 12:27:30;;;;;;;4.72;1.88;;;9.50;99.90;;;;;;5004151;28;20057;-64
2022/02/04 12:29:57;;;;;;;4.68;1.70;;;9.60;99.90;;;;;;5003873;28;20042;-64
2022/02/04 12:32:23;;;;;;;7.85;2.00;;;9.50;99.90;;;;;;5017879;28;20563;-64
2022/02/04 12:34:50;;;;;;;4.03;2.42;;;9.50;99.90;;;;;;5019861;28;20148;-64
2022/02/04 12:37:18;;;;;;;6.53;2.08;;;9.50;99.90;;;;;;5005962;28;20044;-64
2022/02/04 12:39:44;;;;;;;5.20;1.77;;;9.50;99.90;;;;;;5007424;28;20048;-64
2022/02/04 12:42:13;;;;;;;1.92;1.75;;;9.60;99.90;;;;;;5006206;28;20049;-65
2022/02/04 12:44:43;;;;;;;2.00;1.90;;;9.70;99.90;;;;;;5007829;28;20049;-64
2022/02/04 12:47:17;;;;;;;5.05;1.50;;;9.80;99.90;;;;;;5005525;28;20207;-64
2022/02/04 12:49:54;;;;;;;3.40;1.58;;;9.70;99.90;;;;;;5005180;28;20050;-65
2022/02/04 13:03:01;;;;;;;1.92;1.02;;;9.40;99.90;;;;;;5005113;28;20511;-63
2022/02/04 13:11:00;;;;;;;4.20;1.15;;;9.20;99.90;;;;;;5007162;28;20057;-63
2022/02/04 13:13:26;;;;;;;1.45;1.15;;;9.10;99.90;;;;;;5022496;28;20054;-62
2022/02/04 13:15:55;;;;;;;1.02;0.93;;;9.10;99.90;;;;;;4996962;28;20125;-63
2022/02/04 13:18:23;;;;;;;6.63;1.83;;;9.00;99.90;;;;;;5022978;28;20046;-62
2022/02/04 13:20:54;;;;;;;7.13;2.67;;;9.00;99.90;;;;;;4996156;28;20174;-62
2022/02/04 13:23:28;;;;;;;3.20;1.40;;;8.80;99.90;;;;;;4998991;28;20046;-62
2022/02/04 13:26:01;;;;;;;2.15;1.05;;;8.70;99.90;;;;;;5002546;28;20508;-62
2022/02/04 13:28:33;;;;;;;2.80;1.40;;;8.60;99.90;;;;;;4999701;28;20049;-62
2022/02/04 13:31:07;;;;;;;4.57;1.33;;;8.60;99.90;;;;;;5000310;28;20054;-63
2022/02/04 13:33:42;;;;;;;5.07;1.42;;;8.50;99.90;;;;;;5004067;28;20050;-63
2022/02/04 13:38:49;;;;;;;1.42;1.00;;;8.40;99.90;;;;;;5002861;28;20104;-63
2022/02/04 13:47:18;;;;;;;3.42;0.60;;;8.20;99.90;;;;;;5019134;28;20504;-63
2022/02/04 13:53:40;;;;;;;3.47;1.85;;;8.10;99.90;;;;;;4984193;28;20497;-63
2022/02/04 13:56:17;;;;;;;;;;;7.70;99.90;;;;;;5002268;28;20557;-63
2022/02/04 13:58:56;;;;;;;5.55;1.02;;;6.90;99.90;;;;;;5004657;28;19969;-64
2022/02/04 14:01:34;;;;;;;4.13;0.80;;;6.30;99.90;;;;;;5019487;28;20496;-64
2022/02/04 14:04:03;;;;;;;6.43;1.10;;;5.70;99.90;;;;;;4997213;28;20053;-64
2022/02/04 14:06:32;;;;;;;6.20;0.80;;;5.50;99.90;;;;;;5004777;28;20045;-63
2022/02/04 14:09:16;;;;;;;4.18;0.60;;;5.40;99.90;;;;;;5005576;28;20042;-64
2022/02/04 14:11:43;;;;;;;5.25;0.60;;;5.20;99.90;;;;;;5003495;28;20041;-64
2022/02/04 14:14:10;;;;;;;3.50;0.68;;;4.90;99.90;;;;;;5005169;28;20407;-64
2022/02/04 14:16:37;;;;;;;4.72;0.55;;;4.70;99.90;;;;;;5004668;28;20049;-64
2022/02/04 14:19:05;;;;;;;8.20;0.75;;;4.60;99.90;;;;;;5006370;28;20124;-63
2022/02/04 14:21:31;;;;;;;4.45;0.95;;;4.50;99.90;;;;;;5004980;28;20034;-63
2022/02/04 14:24:01;;;;;;;7.85;0.80;;;4.50;99.90;;;;;;5005522;28;20581;-64
2022/02/04 14:26:31;;;;;;;3.80;0.37;;;4.50;99.90;;;;;;5005272;28;20042;-64
2022/02/04 14:31:42;;;;;;;3.15;0.40;;;4.40;99.90;;;;;;5005774;28;20473;-63
2022/02/04 15:01:33;;;;;;;11.95;4.13;;;3.90;99.90;;;;;;4981683;28;20386;-63
2022/02/04 15:04:10;;;;;;;28.38;9.43;;;4.00;99.90;;;;;;4967067;28;20356;-64
2022/02/04 15:06:39;;;;;;;5.43;2.17;;;4.00;99.90;;;;;;4992264;28;20534;-63
2022/02/04 15:09:09;;;;;;;5.00;1.05;;;4.00;99.90;;;;;;4994894;28;20053;-64
2022/02/04 15:11:36;;;;;;;8.20;2.70;;;4.00;99.90;;;;;;5001964;28;20407;-64
2022/02/04 15:14:05;;;;;;;5.93;0.80;;;4.00;99.90;;;;;;5000916;28;20370;-64
2022/02/04 15:16:32;;;;;;;16.05;7.57;;;4.00;99.90;;;;;;5021441;28;20042;-64
2022/02/04 15:18:58;;;;;;;12.60;5.18;;;4.00;99.90;;;;;;5003642;28;20481;-64
2022/02/04 15:21:25;;;;;;;29.90;13.85;;;3.90;99.90;;;;;;5004903;28;20491;-64
2022/02/04 15:23:52;;;;;;;14.05;7.20;;;3.90;99.90;;;;;;5003137;28;20042;-64
2022/02/04 15:26:21;;;;;;;17.77;6.90;;;3.80;99.90;;;;;;5003868;28;20117;-64
2022/02/04 15:28:51;;;;;;;18.95;7.97;;;3.90;99.90;;;;;;5006014;28;20042;-63
2022/02/04 15:33:54;;;;;;;4.72;1.15;;;3.90;99.90;;;;;;4996591;28;20176;-63
2022/02/04 15:36:26;;;;;;;5.90;1.20;;;3.90;99.90;;;;;;5005397;28;20050;-64
2022/02/04 15:38:53;;;;;;;5.45;0.85;;;3.80;99.90;;;;;;5000751;28;20048;-64
2022/02/04 15:41:22;;;;;;;2.17;0.57;;;3.80;99.90;;;;;;5000013;28;20046;-64
2022/02/04 15:43:53;;;;;;;5.63;0.75;;;3.80;99.90;;;;;;5002127;28;20330;-64
2022/02/04 16:02:03;;;;;;;9.73;1.65;;;3.80;99.90;;;;;;5001250;28;20042;-63
2022/02/04 16:04:31;;;;;;;15.30;1.80;;;3.90;99.90;;;;;;4997760;28;20576;-63
2022/02/04 16:06:57;;;;;;;11.52;2.50;;;3.90;99.90;;;;;;5002251;28;20396;-64
2022/02/04 16:09:24;;;;;;;25.77;6.28;;;3.90;99.90;;;;;;5004636;28;20049;-63
2022/02/04 16:12:02;;;;;;;8.82;2.42;;;3.90;99.90;;;;;;4997386;28;20042;-63
2022/02/04 16:14:34;;;;;;;9.77;1.33;;;3.90;99.90;;;;;;5005981;28;20045;-63
2022/02/04 16:17:12;;;;;;;22.05;6.07;;;3.90;99.90;;;;;;4998578;28;20058;-63
2022/02/04 16:19:46;;;;;;;28.20;8.55;;;3.90;99.90;;;;;;5006806;28;20485;-64
2022/02/04 16:22:54;;;;;;;33.33;8.18;;;3.90;99.90;;;;;;5006480;28;20570;-63
2022/02/04 16:26:11;;;;;;;23.05;7.22;;;3.90;99.90;;;;;;5006873;28;20046;-64
2022/02/04 16:30:37;;;;;;;14.10;2.50;;;3.80;99.90;;;;;;5008224;28;20068;-63
2022/02/04 16:33:03;;;;;;;25.63;9.25;;;3.80;99.90;;;;;;5014646;28;20045;-63
2022/02/04 16:35:28;;;;;;;27.00;9.02;;;3.70;99.90;;;;;;4993146;28;20084;-63
2022/02/04 16:38:02;;;;;;;40.78;12.73;;;3.80;99.90;;;;;;5003301;28;20121;-63
2022/02/04 16:40:28;;;;;;;10.68;2.15;;;3.80;99.90;;;;;;4997953;28;20064;-63
2022/02/04 16:42:54;;;;;;;9.55;2.60;;;3.80;99.90;;;;;;5006345;28;20050;-63
2022/02/04 16:45:20;;;;;;;11.00;2.97;;;3.80;99.90;;;;;;4999607;28;20053;-63
2022/02/04 16:47:46;;;;;;;11.70;3.58;;;3.80;99.90;;;;;;5006388;28;20419;-64
2022/02/04 16:50:13;;;;;;;15.02;3.00;;;3.90;99.90;;;;;;5006134;28;20048;-63
2022/02/04 16:52:39;;;;;;;11.00;2.92;;;3.90;99.90;;;;;;5007790;28;20354;-63
2022/02/04 16:55:05;;;;;;;15.48;2.58;;;3.90;99.90;;;;;;5003666;28;20745;-63
2022/02/04 16:57:31;;;;;;;11.10;3.63;;;3.90;99.90;;;;;;5003761;28;20625;-63
2022/02/04 17:00:00;;;;;;;13.32;4.32;;;3.90;99.90;;;;;;5011158;28;20504;-63
2022/02/04 17:02:26;;;;;;;12.13;4.40;;;3.90;99.90;;;;;;5008429;28;20161;-64
2022/02/04 17:04:52;;;;;;;10.95;3.83;;;3.90;99.90;;;;;;5008676;28;20619;-63
2022/02/04 17:07:25;;;;;;;9.75;3.00;;;3.90;99.90;;;;;;5007144;28;20082;-63
2022/02/04 17:09:53;;;;;;;11.77;2.58;;;4.00;99.90;;;;;;5002251;28;20045;-63
2022/02/04 17:12:28;;;;;;;6.28;1.10;;;4.00;99.90;;;;;;5023630;28;20049;-63
2022/02/04 17:14:56;;;;;;;13.95;1.83;;;4.00;99.90;;;;;;5011163;28;20038;-64
2022/02/04 17:17:24;;;;;;;8.57;1.50;;;4.00;99.90;;;;;;5012811;28;20038;-64
2022/02/04 17:20:03;;;;;;;4.63;1.05;;;4.00;99.90;;;;;;5007153;28;20049;-63
2022/02/04 17:22:28;;;;;;;6.28;0.93;;;4.00;99.90;;;;;;5004754;28;20115;-63
2022/02/04 17:24:54;;;;;;;5.53;0.52;;;4.00;99.90;;;;;;5010251;28;20431;-63
2022/02/04 17:27:20;;;;;;;7.97;1.08;;;4.10;99.90;;;;;;5006901;28;20041;-63
2022/02/04 17:29:45;;;;;;;6.72;1.05;;;4.10;99.90;;;;;;5007960;28;20038;-63
2022/02/04 17:32:12;;;;;;;9.88;1.80;;;4.10;99.90;;;;;;5005728;28;20559;-63
2022/02/04 17:34:38;;;;;;;12.75;2.20;;;4.20;99.90;;;;;;5008111;28;20049;-63
2022/02/04 17:37:04;;;;;;;9.50;2.10;;;4.20;99.90;;;;;;5021271;28;20038;-63
2022/02/04 17:39:29;;;;;;;8.38;1.40;;;4.20;99.90;;;;;;5007892;28;20050;-63
2022/02/04 17:42:01;;;;;;;13.98;2.40;;;4.10;99.90;;;;;;5005873;28;20041;-63
2022/02/04 17:44:27;;;;;;;7.85;1.67;;;4.10;99.90;;;;;;5005044;28;20040;-63
2022/02/04 17:46:53;;;;;;;5.57;0.82;;;4.20;99.90;;;;;;4989573;28;20960;-63
2022/02/04 17:49:25;;;;;;;10.73;1.35;;;4.10;99.90;;;;;;5006833;28;20057;-63
2022/02/04 17:52:00;;;;;;;10.82;1.77;;;4.20;99.90;;;;;;5006145;28;20042;-63
2022/02/04 17:54:38;;;;;;;13.50;2.13;;;4.20;99.90;;;;;;4995935;28;20077;-63
2022/02/04 17:57:16;;;;;;;13.82;3.63;;;4.20;99.90;;;;;;5005690;28;20038;-63
2022/02/04 18:02:29;;;;;;;12.70;2.42;;;4.10;99.90;;;;;;5005692;28;20495;-63
2022/02/04 18:07:40;;;;;;;11.38;1.67;;;4.00;99.90;;;;;;5006854;28;20054;-63
2022/02/04 18:10:08;;;;;;;5.00;0.98;;;3.90;99.90;;;;;;5006588;28;20096;-63
2022/02/04 18:12:36;;;;;;;10.00;1.77;;;3.90;99.90;;;;;;5021834;28;20041;-63
2022/02/04 18:15:03;;;;;;;8.63;1.40;;;3.90;99.90;;;;;;5017171;28;20081;-64
2022/02/04 18:17:30;;;;;;;10.90;1.52;;;3.80;99.90;;;;;;5007256;28;20121;-64
2022/02/04 18:19:56;;;;;;;3.58;0.57;;;3.80;99.90;;;;;;5006626;28;20046;-63
2022/02/04 18:22:22;;;;;;;7.20;1.15;;;3.80;99.90;;;;;;5006918;28;20041;-63
2022/02/04 18:24:48;;;;;;;4.78;0.88;;;3.80;99.90;;;;;;4994111;28;20042;-63
2022/02/04 18:27:15;;;;;;;4.90;0.60;;;3.90;99.90;;;;;;5004410;28;20044;-63
2022/02/04 18:29:46;;;;;;;2.03;0.60;;;3.80;99.90;;;;;;5008173;28;20034;-64
2022/02/04 18:32:13;;;;;;;4.47;0.32;;;3.80;99.90;;;;;;5005879;28;20696;-65
2022/02/04 18:34:39;;;;;;;4.25;0.95;;;3.80;99.90;;;;;;5021140;28;20046;-62
2022/02/04 18:37:06;;;;;;;11.02;1.90;;;3.80;99.90;;;;;;5006064;28;20033;-62
2022/02/04 18:40:02;;;;;;;0.20;0.20;;;3.90;99.90;;;;;;5006302;28;20050;-62
2022/02/04 18:45:07;;;;;;;1.88;0.43;;;3.90;99.90;;;;;;5005700;28;20642;-63
2022/02/04 18:47:51;;;;;;;6.60;1.08;;;3.90;99.90;;;;;;5005464;28;20085;-63
2022/02/04 18:58:07;;;;;;;4.47;0.90;;;3.90;99.90;;;;;;5006027;28;20486;-63
2022/02/04 19:00:34;;;;;;;7.78;0.82;;;3.90;99.90;;;;;;4997512;28;20045;-62
2022/02/04 19:03:04;;;;;;;7.63;1.48;;;3.90;99.90;;;;;;5005459;28;20038;-63
2022/02/04 19:05:36;;;;;;;3.75;0.82;;;4.00;99.90;;;;;;5004811;28;20049;-63
2022/02/04 19:08:09;;;;;;;12.05;1.33;;;3.90;99.90;;;;;;5004013;28;20045;-63
2022/02/04 19:10:38;;;;;;;1.58;0.57;;;4.00;99.90;;;;;;5003307;28;20042;-63
2022/02/04 19:18:05;;;;;;;14.05;1.50;;;4.00;99.90;;;;;;5020291;28;20068;-63
2022/02/04 19:23:06;;;;;;;12.93;2.23;;;4.00;99.90;;;;;;5005362;28;20046;-63
2022/02/04 19:25:36;;;;;;;25.70;3.35;;;4.00;99.90;;;;;;5003684;28;20046;-63
2022/02/04 19:28:05;;;;;;;28.17;4.88;;;4.00;99.90;;;;;;4998835;28;20052;-63
2022/02/04 19:30:32;;;;;;;35.30;5.28;;;4.00;99.90;;;;;;5004675;28;20046;-63
2022/02/04 19:32:59;;;;;;;26.30;4.53;;;4.00;99.90;;;;;;5004662;28;20721;-64
2022/02/04 19:35:26;;;;;;;6.18;1.15;;;4.00;99.90;;;;;;5004497;28;20073;-63
2022/02/04 19:37:53;;;;;;;15.05;2.25;;;4.00;99.90;;;;;;5017389;28;20114;-63
2022/02/04 19:40:19;;;;;;;17.35;2.22;;;4.00;99.90;;;;;;5007316;28;20054;-63
2022/02/04 19:42:48;;;;;;;21.85;3.47;;;4.00;99.90;;;;;;5004867;28;20057;-63
2022/02/04 19:45:24;;;;;;;16.23;2.28;;;4.00;99.90;;;;;;5005278;28;20045;-64
2022/02/04 19:48:05;;;;;;;11.00;1.58;;;4.00;99.90;;;;;;5000265;28;20472;-63